createdAt,value
2022-11-12T00:01:52.019Z,17.23
2022-11-12T00:07:00.441Z,16.00
2022-11-12T00:12:09.114Z,17.13
2022-11-12T00:17:21.363Z,13.82
2022-11-12T00:22:29.736Z,15.23
2022-11-12T00:27:39.909Z,15.37
2022-11-12T00:32:50.991Z,15.68
2022-11-12T00:38:02.114Z,18.08
2022-11-12T00:43:10.654Z,16.73
2022-11-12T00:48:21.370Z,16.95
2022-11-12T00:53:31.752Z,16.30
2022-11-12T00:58:39.807Z,15.88
2022-11-12T01:03:52.618Z,17.13
2022-11-12T01:09:01.407Z,16.25
2022-11-12T01:14:12.100Z,18.88
2022-11-12T01:19:25.472Z,16.43
2022-11-12T01:24:34.042Z,16.05
2022-11-12T01:29:42.517Z,16.02
2022-11-12T01:34:53.963Z,16.08
2022-11-12T01:40:02.188Z,15.97
2022-11-12T01:45:17.308Z,18.38
2022-11-12T01:50:34.590Z,19.73
2022-11-12T01:55:47.750Z,17.85
2022-11-12T02:00:56.258Z,16.50
2022-11-12T02:06:14.689Z,15.75
2022-11-12T02:11:24.551Z,16.48
2022-11-12T02:16:36.218Z,16.27
2022-11-12T02:21:47.930Z,19.15
2022-11-12T02:26:58.339Z,16.30
2022-11-12T02:32:07.295Z,17.63
2022-11-12T02:37:18.188Z,15.88
2022-11-12T02:42:29.620Z,18.83
2022-11-12T02:47:38.145Z,30.05
2022-11-12T02:52:50.099Z,48.37
2022-11-12T02:58:00.533Z,24.88
2022-11-12T03:03:08.575Z,29.40
2022-11-12T03:08:19.704Z,42.17
2022-11-12T03:13:28.035Z,23.17
2022-11-12T03:18:37.868Z,26.57
2022-11-12T03:23:48.639Z,21.45
2022-11-12T03:28:57.988Z,36.57
2022-11-12T03:34:06.360Z,28.88
2022-11-12T03:39:17.185Z,27.83
2022-11-12T03:44:25.684Z,57.58
2022-11-12T03:49:34.052Z,36.67
2022-11-12T03:54:46.078Z,24.90
2022-11-12T03:59:54.344Z,25.00
2022-11-12T04:05:15.368Z,23.20
2022-11-12T04:10:26.389Z,22.05
2022-11-12T04:15:34.742Z,20.50
2022-11-12T04:21:01.452Z,22.13
2022-11-12T04:26:27.598Z,25.93
2022-11-12T04:31:38.451Z,28.65
2022-11-12T04:36:46.576Z,31.38
2022-11-12T04:42:09.900Z,31.13
2022-11-12T04:47:18.164Z,30.23
2022-11-12T04:52:26.833Z,26.08
2022-11-12T04:57:38.302Z,28.67
2022-11-12T05:02:49.123Z,26.08
2022-11-12T05:07:57.292Z,23.00
2022-11-12T05:13:08.162Z,23.95
2022-11-12T05:18:16.199Z,23.45
2022-11-12T05:23:27.990Z,21.02
2022-11-12T05:28:40.653Z,23.17
2022-11-12T05:33:49.107Z,23.38
2022-11-12T05:38:57.685Z,24.85
2022-11-12T05:44:09.769Z,23.50
2022-11-12T05:49:17.976Z,23.02
2022-11-12T05:54:26.277Z,19.75
2022-11-12T05:59:37.022Z,22.63
2022-11-12T06:04:45.144Z,18.73
2022-11-12T06:09:53.179Z,20.00
2022-11-12T06:15:03.779Z,18.15
2022-11-12T06:20:13.501Z,17.07
2022-11-12T06:25:21.613Z,18.83
2022-11-12T06:30:32.868Z,18.55
2022-11-12T06:35:43.078Z,18.73
2022-11-12T06:40:51.805Z,18.98
2022-11-12T06:46:09.538Z,18.27
2022-11-12T06:51:22.104Z,17.42
2022-11-12T06:56:30.727Z,18.25
2022-11-12T07:01:42.013Z,28.97
2022-11-12T07:06:50.556Z,27.27
2022-11-12T07:12:01.662Z,34.10
2022-11-12T07:17:12.441Z,33.00
2022-11-12T07:22:21.326Z,31.05
2022-11-12T07:27:34.611Z,32.42
2022-11-12T07:32:51.656Z,33.40
2022-11-12T07:38:04.545Z,32.65
2022-11-12T07:43:12.988Z,32.38
2022-11-12T07:48:24.620Z,34.45
2022-11-12T07:53:34.001Z,36.72
2022-11-12T07:58:42.429Z,30.75
2022-11-12T08:03:56.015Z,36.00
2022-11-12T08:09:08.795Z,33.20
2022-11-12T08:14:17.123Z,35.13
2022-11-12T08:19:27.870Z,40.00
2022-11-12T08:24:36.341Z,37.08
2022-11-12T08:29:44.836Z,40.15
2022-11-12T08:34:55.723Z,38.50
2022-11-12T08:40:03.702Z,39.13
2022-11-12T08:45:12.917Z,33.75
2022-11-12T08:50:24.219Z,36.83
2022-11-12T08:55:33.417Z,35.63
2022-11-12T09:00:44.332Z,36.33
2022-11-12T09:05:55.642Z,29.75
2022-11-12T09:11:03.748Z,29.03
2022-11-12T09:16:13.094Z,28.92
2022-11-12T09:21:27.403Z,27.20
2022-11-12T09:26:36.552Z,25.53
2022-11-12T09:31:44.915Z,21.67
2022-11-12T09:36:55.625Z,21.45
2022-11-12T09:42:11.602Z,16.67
2022-11-12T09:47:26.842Z,13.98
2022-11-12T09:52:42.349Z,12.63
2022-11-12T09:57:54.024Z,12.77
2022-11-12T10:03:10.388Z,11.57
2022-11-12T10:08:37.011Z,9.55
2022-11-12T10:13:54.036Z,11.57
2022-11-12T10:19:15.795Z,11.25
2022-11-12T10:24:31.771Z,9.98
2022-11-12T10:29:50.071Z,10.35
2022-11-12T10:35:02.898Z,10.07
2022-11-12T10:40:35.460Z,10.02
2022-11-12T10:45:43.940Z,10.82
2022-11-12T10:50:52.570Z,12.73
2022-11-12T10:56:05.215Z,11.73
2022-11-12T11:01:20.605Z,11.40
2022-11-12T11:06:35.281Z,11.82
2022-11-12T11:11:53.733Z,13.43
2022-11-12T11:17:08.633Z,11.57
2022-11-12T11:22:42.222Z,10.10
2022-11-12T11:28:06.873Z,8.23
2022-11-12T11:33:40.812Z,6.45
2022-11-12T11:38:59.479Z,8.02
2022-11-12T11:44:23.030Z,7.33
2022-11-12T11:50:01.701Z,9.02
2022-11-12T11:55:21.872Z,9.13
2022-11-12T12:00:39.982Z,7.90
2022-11-12T12:06:01.748Z,6.88
2022-11-12T12:11:19.155Z,5.63
2022-11-12T12:16:45.383Z,5.55
2022-11-12T12:21:55.915Z,5.27
2022-11-12T12:27:12.846Z,4.50
2022-11-12T12:32:32.856Z,4.80
2022-11-12T12:37:49.003Z,4.63
2022-11-12T12:43:02.858Z,4.55
2022-11-12T12:48:19.869Z,6.13
2022-11-12T12:53:38.384Z,5.40
2022-11-12T12:58:49.820Z,5.93
2022-11-12T13:04:03.408Z,5.03
2022-11-12T13:09:28.842Z,4.77
2022-11-12T13:15:10.661Z,5.55
2022-11-12T13:20:37.476Z,5.55
2022-11-12T13:25:48.420Z,5.67
2022-11-12T13:31:10.179Z,5.10
2022-11-12T13:36:32.594Z,7.57
2022-11-12T13:41:55.570Z,7.05
2022-11-12T13:47:04.826Z,8.57
2022-11-12T13:52:18.855Z,7.95
2022-11-12T13:57:31.277Z,7.03
2022-11-12T14:02:41.807Z,7.07
2022-11-12T14:08:18.854Z,7.25
2022-11-12T14:13:53.180Z,7.25
2022-11-12T14:19:31.252Z,6.63
2022-11-12T14:24:44.765Z,6.60
2022-11-12T14:30:11.084Z,7.05
2022-11-12T14:35:28.567Z,6.38
2022-11-12T14:40:48.257Z,7.30
2022-11-12T14:46:00.944Z,7.53
2022-11-12T14:51:14.418Z,7.30
2022-11-12T14:56:35.408Z,7.22
2022-11-12T15:02:31.364Z,7.85
2022-11-12T15:07:42.952Z,7.90
2022-11-12T15:12:54.414Z,8.27
2022-11-12T15:18:05.780Z,8.93
2022-11-12T15:23:20.441Z,8.82
2022-11-12T15:28:31.509Z,9.40
2022-11-12T15:33:41.091Z,10.00
2022-11-12T15:38:54.684Z,9.95
2022-11-12T15:44:05.668Z,9.98
2022-11-12T15:49:15.929Z,10.95
2022-11-12T15:54:27.228Z,10.38
2022-11-12T15:59:41.056Z,10.10
2022-11-12T16:04:49.710Z,10.38
2022-11-12T16:10:02.905Z,9.85
2022-11-12T16:15:18.541Z,10.83
2022-11-12T16:20:32.401Z,23.33
2022-11-12T16:25:45.107Z,17.92
2022-11-12T16:30:56.406Z,13.13
2022-11-12T16:36:05.013Z,14.85
2022-11-12T16:41:14.982Z,14.82
2022-11-12T16:46:31.790Z,12.53
2022-11-12T16:51:40.323Z,15.73
2022-11-12T16:56:48.826Z,20.88
2022-11-12T17:01:59.525Z,13.87
2022-11-12T17:07:08.868Z,15.20
2022-11-12T17:12:17.257Z,17.77
2022-11-12T17:17:28.654Z,17.73
2022-11-12T17:22:37.547Z,18.30
2022-11-12T17:27:46.180Z,17.95
2022-11-12T17:33:01.723Z,17.20
2022-11-12T17:38:09.957Z,17.27
2022-11-12T17:43:18.677Z,17.75
2022-11-12T17:48:29.949Z,17.10
2022-11-12T17:53:38.482Z,17.00
2022-11-12T17:58:48.539Z,16.48
2022-11-12T18:04:00.743Z,19.23
2022-11-12T18:09:11.054Z,19.67
2022-11-12T18:14:20.028Z,20.60
2022-11-12T18:19:30.769Z,20.10
2022-11-12T18:24:39.529Z,18.52
2022-11-12T18:29:48.341Z,21.52
2022-11-12T18:34:59.337Z,33.58
2022-11-12T18:40:08.196Z,30.15
2022-11-12T18:45:18.025Z,24.50
2022-11-12T18:50:29.333Z,19.07
2022-11-12T18:55:37.903Z,27.35
2022-11-12T19:00:47.253Z,33.25
2022-11-12T19:06:06.590Z,30.45
2022-11-12T19:11:16.426Z,23.63
2022-11-12T19:16:26.706Z,32.70
2022-11-12T19:21:37.472Z,32.55
2022-11-12T19:26:45.735Z,28.38
2022-11-12T19:31:54.178Z,27.92
2022-11-12T19:37:31.738Z,22.63
2022-11-12T19:42:33.700Z,25.40
2022-11-12T19:47:43.086Z,23.25
2022-11-12T19:52:57.007Z,23.23
2022-11-12T19:58:05.948Z,23.08
2022-11-12T20:03:14.830Z,23.08
2022-11-12T20:08:27.132Z,24.25
2022-11-12T20:13:38.974Z,25.45
2022-11-12T20:18:51.046Z,23.40
2022-11-12T20:24:04.164Z,23.88
2022-11-12T20:29:13.088Z,23.92
2022-11-12T20:34:25.335Z,24.67
2022-11-12T20:39:37.639Z,24.45
2022-11-12T20:44:46.372Z,26.17
2022-11-12T20:49:55.195Z,29.13
2022-11-12T20:55:08.060Z,26.55
2022-11-12T21:00:24.302Z,26.10
2022-11-12T21:05:36.171Z,25.85
2022-11-12T21:10:52.311Z,29.92
2022-11-12T21:16:06.416Z,29.25
2022-11-12T21:21:20.460Z,29.50
2022-11-12T21:26:32.813Z,29.63
2022-11-12T21:31:51.540Z,28.88
2022-11-12T21:37:01.620Z,29.95
2022-11-12T21:42:19.251Z,29.38
2022-11-12T21:47:29.204Z,26.55
2022-11-12T21:52:42.325Z,26.58
2022-11-12T21:57:54.400Z,27.58
2022-11-12T22:03:04.486Z,26.90
2022-11-12T22:08:14.742Z,25.90
2022-11-12T22:13:28.020Z,27.95
2022-11-12T22:18:37.986Z,27.80
2022-11-12T22:23:48.408Z,30.40
2022-11-12T22:29:02.734Z,25.97
2022-11-12T22:34:13.002Z,28.30
2022-11-12T22:39:22.352Z,27.50
2022-11-12T22:44:34.724Z,26.33
2022-11-12T22:49:44.889Z,28.40
2022-11-12T22:54:56.474Z,30.13
2022-11-12T23:00:13.983Z,29.30
2022-11-12T23:05:26.114Z,29.30
2022-11-12T23:10:40.426Z,31.55
2022-11-12T23:15:57.659Z,30.42
2022-11-12T23:21:08.349Z,32.38
2022-11-12T23:26:19.160Z,34.73
2022-11-12T23:31:33.762Z,32.80
2022-11-12T23:36:42.920Z,37.40
2022-11-12T23:42:00.515Z,37.05
2022-11-12T23:47:12.635Z,35.92
2022-11-12T23:52:22.063Z,35.35
2022-11-12T23:57:33.417Z,36.22
